Bellamy, AL (36901)

11:17 AM CST on December 27, 2014 (GMT -0600)
Demopolis Municipal Airport | Change Station
CLOSE
Current Station
Airport
Location: Demopolis Municipal Airport,
Elevation: 112 ft
Nearby Weather Stations
Active Advisory: Flood Warning, Flash Flood Watch

Elev 112 ft 32.46 °N, 87.95 °W | Updated 22 minutes ago

Overcast
Overcast
56 °F
Feels Like 56 °F
N
5
Wind Variable Wind from East

Today
High -- | Low -- °F
--% Chance of Precip.
Yesterday
High -- | Low -- °F
Precip. -- in
6:52 AM 4:54 PM
Waxing Crescent, 38% visible
Pressure 30.21 in
Visibility 10.0 miles
Clouds Overcast 4300 ft
Dew Point 55 °F
Humidity 96%
Rainfall 0.00 in
Snow Depth Not available.
UV 1 out of 12
Pollen .40 out of 12
Air Quality Not available.
Flu Activity Not available.
METAR KDYA 271655Z AUTO 08004KT 10SM OVC043 14/13 A3021 RMK AO2 T01350128

More Conditions Fewer Conditions

Pressure 30.21 in
Visibility 10.0 miles
Clouds Overcast 4300 ft
Dew Point 55 °F
Humidity 96%
Rainfall 0.00 in
Snow Depth Not available.
UV 1 out of 12
Pollen .40 out of 12
Air Quality Not available.
Flu Activity Not available.
METAR KDYA 271655Z AUTO 08004KT 10SM OVC043 14/13 A3021 RMK AO2 T01350128

More Conditions Fewer Conditions

10-Day Weather Forecast

Almanac

Astronomy

Dec. 27, 2014 Rise Set
Actual Time
Civil Twilight
Nautical Twilight
Astronomical Twilight
Moon
Length of Visible Light
Length of Day
Tomorrow will be .
, % of the Moon is Illuminated

Today's Extremes

State Highs State Lows

Community

WunderPhotos

Upload Photos

1,780,967 photos uploaded!

WunderBlogs® & News

Nearby

Air Quality

  Air Quality AQ Index Pollutant
Not available.

Snow Depth

Station Depth Elevation

Earthquake Activity

City Distance Mag. Time & Date
Minimum magnitude displayed is 2.5.

Coastal Water Temperatures

Place Temperature

Nearby Weather Stations